sensor_id;sensor_type;location;lat;lon;timestamp;P1;durP1;ratioP1;P2;durP2;ratioP2
30380;SDS011;17169;50.966;11.038;2023-09-08T00:01:25;10.07;;;4.35;;
30380;SDS011;17169;50.966;11.038;2023-09-08T00:04:27;6.35;;;4.18;;
30380;SDS011;17169;50.966;11.038;2023-09-08T00:07:29;9.55;;;5.22;;
30380;SDS011;17169;50.966;11.038;2023-09-08T00:10:32;10.13;;;4.90;;
30380;SDS011;17169;50.966;11.038;2023-09-08T00:13:34;13.10;;;4.53;;
30380;SDS011;17169;50.966;11.038;2023-09-08T00:16:38;7.63;;;4.78;;
30380;SDS011;17169;50.966;11.038;2023-09-08T00:19:43;10.02;;;4.30;;
30380;SDS011;17169;50.966;11.038;2023-09-08T00:22:45;8.75;;;4.28;;
30380;SDS011;17169;50.966;11.038;2023-09-08T00:25:49;6.85;;;4.30;;
30380;SDS011;17169;50.966;11.038;2023-09-08T00:28:51;16.27;;;5.05;;
30380;SDS011;17169;50.966;11.038;2023-09-08T00:31:55;8.77;;;4.55;;
30380;SDS011;17169;50.966;11.038;2023-09-08T00:34:57;7.28;;;4.93;;
30380;SDS011;17169;50.966;11.038;2023-09-08T00:37:59;7.07;;;4.70;;
30380;SDS011;17169;50.966;11.038;2023-09-08T00:41:02;8.90;;;5.25;;
30380;SDS011;17169;50.966;11.038;2023-09-08T00:44:06;12.63;;;4.65;;
30380;SDS011;17169;50.966;11.038;2023-09-08T00:47:10;8.27;;;5.28;;
30380;SDS011;17169;50.966;11.038;2023-09-08T00:50:13;9.85;;;4.97;;
30380;SDS011;17169;50.966;11.038;2023-09-08T00:53:15;9.23;;;4.35;;
30380;SDS011;17169;50.966;11.038;2023-09-08T00:56:18;10.00;;;5.00;;
30380;SDS011;17169;50.966;11.038;2023-09-08T00:59:21;9.02;;;4.80;;
30380;SDS011;17169;50.966;11.038;2023-09-08T01:02:26;13.20;;;5.30;;
30380;SDS011;17169;50.966;11.038;2023-09-08T01:05:29;8.23;;;4.88;;
30380;SDS011;17169;50.966;11.038;2023-09-08T01:08:31;9.63;;;5.00;;
30380;SDS011;17169;50.966;11.038;2023-09-08T01:11:34;8.25;;;5.05;;
30380;SDS011;17169;50.966;11.038;2023-09-08T01:14:36;9.95;;;5.40;;
30380;SDS011;17169;50.966;11.038;2023-09-08T01:17:40;10.15;;;5.07;;
30380;SDS011;17169;50.966;11.038;2023-09-08T01:20:48;10.02;;;4.68;;
30380;SDS011;17169;50.966;11.038;2023-09-08T01:24:11;11.18;;;5.00;;
30380;SDS011;17169;50.966;11.038;2023-09-08T01:27:35;9.75;;;5.38;;
30380;SDS011;17169;50.966;11.038;2023-09-08T01:30:38;7.50;;;4.93;;
30380;SDS011;17169;50.966;11.038;2023-09-08T01:33:42;12.07;;;6.00;;
30380;SDS011;17169;50.966;11.038;2023-09-08T01:36:46;11.13;;;5.35;;
30380;SDS011;17169;50.966;11.038;2023-09-08T01:39:48;10.57;;;4.90;;
30380;SDS011;17169;50.966;11.038;2023-09-08T01:42:52;7.85;;;5.28;;
30380;SDS011;17169;50.966;11.038;2023-09-08T01:45:55;9.60;;;5.93;;
30380;SDS011;17169;50.966;11.038;2023-09-08T01:48:57;7.82;;;5.13;;
30380;SDS011;17169;50.966;11.038;2023-09-08T01:51:59;10.60;;;4.72;;
30380;SDS011;17169;50.966;11.038;2023-09-08T01:55:02;8.25;;;5.43;;
30380;SDS011;17169;50.966;11.038;2023-09-08T01:58:06;9.88;;;5.30;;
30380;SDS011;17169;50.966;11.038;2023-09-08T02:01:08;11.98;;;5.32;;
30380;SDS011;17169;50.966;11.038;2023-09-08T02:04:11;8.75;;;5.57;;
30380;SDS011;17169;50.966;11.038;2023-09-08T02:07:13;10.07;;;5.20;;
30380;SDS011;17169;50.966;11.038;2023-09-08T02:10:15;14.07;;;5.13;;
30380;SDS011;17169;50.966;11.038;2023-09-08T02:13:19;10.32;;;5.32;;
30380;SDS011;17169;50.966;11.038;2023-09-08T02:16:22;8.77;;;5.10;;
30380;SDS011;17169;50.966;11.038;2023-09-08T02:19:24;12.77;;;5.93;;
30380;SDS011;17169;50.966;11.038;2023-09-08T02:22:26;9.02;;;5.35;;
30380;SDS011;17169;50.966;11.038;2023-09-08T02:25:29;9.25;;;5.22;;
30380;SDS011;17169;50.966;11.038;2023-09-08T02:28:33;7.40;;;4.95;;
30380;SDS011;17169;50.966;11.038;2023-09-08T02:31:35;8.75;;;5.32;;
30380;SDS011;17169;50.966;11.038;2023-09-08T02:34:37;18.05;;;11.30;;
30380;SDS011;17169;50.966;11.038;2023-09-08T02:37:40;16.92;;;7.25;;
30380;SDS011;17169;50.966;11.038;2023-09-08T02:40:42;14.55;;;7.55;;
30380;SDS011;17169;50.966;11.038;2023-09-08T02:43:46;12.77;;;9.02;;
30380;SDS011;17169;50.966;11.038;2023-09-08T02:46:49;7.93;;;5.00;;
30380;SDS011;17169;50.966;11.038;2023-09-08T02:49:51;11.30;;;6.57;;
30380;SDS011;17169;50.966;11.038;2023-09-08T02:52:53;9.50;;;7.55;;
30380;SDS011;17169;50.966;11.038;2023-09-08T02:55:56;9.25;;;5.47;;
30380;SDS011;17169;50.966;11.038;2023-09-08T02:59:00;10.93;;;5.88;;
30380;SDS011;17169;50.966;11.038;2023-09-08T03:02:02;10.15;;;5.80;;
30380;SDS011;17169;50.966;11.038;2023-09-08T03:05:05;9.23;;;5.68;;
30380;SDS011;17169;50.966;11.038;2023-09-08T03:08:08;9.50;;;6.10;;
30380;SDS011;17169;50.966;11.038;2023-09-08T03:11:10;12.60;;;5.78;;
30380;SDS011;17169;50.966;11.038;2023-09-08T03:14:15;10.05;;;5.95;;
30380;SDS011;17169;50.966;11.038;2023-09-08T03:17:17;10.15;;;5.63;;
30380;SDS011;17169;50.966;11.038;2023-09-08T03:20:20;10.73;;;6.15;;
30380;SDS011;17169;50.966;11.038;2023-09-08T03:23:22;8.95;;;5.90;;
30380;SDS011;17169;50.966;11.038;2023-09-08T03:26:25;9.77;;;5.90;;
30380;SDS011;17169;50.966;11.038;2023-09-08T03:29:28;9.25;;;5.82;;
30380;SDS011;17169;50.966;11.038;2023-09-08T03:32:31;16.42;;;6.63;;
30380;SDS011;17169;50.966;11.038;2023-09-08T03:35:33;8.77;;;5.57;;
30380;SDS011;17169;50.966;11.038;2023-09-08T03:38:36;11.75;;;5.35;;
30380;SDS011;17169;50.966;11.038;2023-09-08T03:41:38;9.60;;;5.40;;
30380;SDS011;17169;50.966;11.038;2023-09-08T03:44:43;11.05;;;5.22;;
30380;SDS011;17169;50.966;11.038;2023-09-08T03:47:46;13.30;;;5.93;;
30380;SDS011;17169;50.966;11.038;2023-09-08T03:50:48;9.48;;;5.72;;
30380;SDS011;17169;50.966;11.038;2023-09-08T03:53:51;10.57;;;5.13;;
30380;SDS011;17169;50.966;11.038;2023-09-08T03:56:53;13.00;;;6.00;;
30380;SDS011;17169;50.966;11.038;2023-09-08T03:59:57;8.77;;;5.57;;
30380;SDS011;17169;50.966;11.038;2023-09-08T04:02:59;7.47;;;5.47;;
30380;SDS011;17169;50.966;11.038;2023-09-08T04:06:01;11.13;;;5.75;;
30380;SDS011;17169;50.966;11.038;2023-09-08T04:09:04;8.95;;;5.55;;
30380;SDS011;17169;50.966;11.038;2023-09-08T04:12:06;9.85;;;5.28;;
30380;SDS011;17169;50.966;11.038;2023-09-08T04:15:12;10.40;;;6.72;;
30380;SDS011;17169;50.966;11.038;2023-09-08T04:18:15;12.25;;;5.72;;
30380;SDS011;17169;50.966;11.038;2023-09-08T04:21:17;13.32;;;5.75;;
30380;SDS011;17169;50.966;11.038;2023-09-08T04:24:19;11.02;;;6.38;;
30380;SDS011;17169;50.966;11.038;2023-09-08T04:27:22;9.65;;;6.00;;
30380;SDS011;17169;50.966;11.038;2023-09-08T04:30:26;10.85;;;6.18;;
30380;SDS011;17169;50.966;11.038;2023-09-08T04:33:29;9.15;;;5.88;;
30380;SDS011;17169;50.966;11.038;2023-09-08T04:36:31;12.18;;;6.97;;
30380;SDS011;17169;50.966;11.038;2023-09-08T04:39:34;8.88;;;6.32;;
30380;SDS011;17169;50.966;11.038;2023-09-08T04:42:37;13.10;;;7.15;;
30380;SDS011;17169;50.966;11.038;2023-09-08T04:45:41;14.73;;;6.43;;
30380;SDS011;17169;50.966;11.038;2023-09-08T04:48:43;10.13;;;6.10;;
30380;SDS011;17169;50.966;11.038;2023-09-08T04:51:46;9.98;;;6.00;;
30380;SDS011;17169;50.966;11.038;2023-09-08T04:54:48;9.60;;;6.15;;
30380;SDS011;17169;50.966;11.038;2023-09-08T04:57:50;11.15;;;6.63;;
30380;SDS011;17169;50.966;11.038;2023-09-08T05:00:54;10.15;;;6.88;;
30380;SDS011;17169;50.966;11.038;2023-09-08T05:03:56;11.07;;;6.28;;
30380;SDS011;17169;50.966;11.038;2023-09-08T05:06:59;10.07;;;6.57;;
30380;SDS011;17169;50.966;11.038;2023-09-08T05:10:01;9.00;;;6.45;;
30380;SDS011;17169;50.966;11.038;2023-09-08T05:13:03;13.45;;;7.00;;
30380;SDS011;17169;50.966;11.038;2023-09-08T05:16:07;10.85;;;6.85;;
30380;SDS011;17169;50.966;11.038;2023-09-08T05:19:12;10.13;;;6.35;;
30380;SDS011;17169;50.966;11.038;2023-09-08T05:22:15;13.27;;;5.93;;
30380;SDS011;17169;50.966;11.038;2023-09-08T05:25:18;11.85;;;7.10;;
30380;SDS011;17169;50.966;11.038;2023-09-08T05:28:20;9.88;;;6.32;;
30380;SDS011;17169;50.966;11.038;2023-09-08T05:31:24;11.93;;;6.70;;
30380;SDS011;17169;50.966;11.038;2023-09-08T05:34:27;10.52;;;6.88;;
30380;SDS011;17169;50.966;11.038;2023-09-08T05:37:29;11.30;;;6.45;;
30380;SDS011;17169;50.966;11.038;2023-09-08T05:40:31;12.10;;;6.78;;
30380;SDS011;17169;50.966;11.038;2023-09-08T05:43:34;10.98;;;7.43;;
30380;SDS011;17169;50.966;11.038;2023-09-08T05:46:38;14.48;;;6.75;;
30380;SDS011;17169;50.966;11.038;2023-09-08T05:49:40;10.60;;;7.10;;
30380;SDS011;17169;50.966;11.038;2023-09-08T05:52:43;14.23;;;7.00;;
30380;SDS011;17169;50.966;11.038;2023-09-08T05:55:45;11.35;;;6.55;;
30380;SDS011;17169;50.966;11.038;2023-09-08T05:58:47;13.13;;;6.75;;
30380;SDS011;17169;50.966;11.038;2023-09-08T06:01:51;11.15;;;6.03;;
30380;SDS011;17169;50.966;11.038;2023-09-08T06:04:53;10.40;;;6.65;;
30380;SDS011;17169;50.966;11.038;2023-09-08T06:07:57;11.52;;;7.38;;
30380;SDS011;17169;50.966;11.038;2023-09-08T06:10:59;11.48;;;6.85;;
30380;SDS011;17169;50.966;11.038;2023-09-08T06:14:01;13.68;;;6.65;;
30380;SDS011;17169;50.966;11.038;2023-09-08T06:17:05;13.75;;;7.13;;
30380;SDS011;17169;50.966;11.038;2023-09-08T06:20:08;13.02;;;7.30;;
30380;SDS011;17169;50.966;11.038;2023-09-08T06:23:11;17.08;;;7.60;;
30380;SDS011;17169;50.966;11.038;2023-09-08T06:26:14;13.10;;;7.25;;
30380;SDS011;17169;50.966;11.038;2023-09-08T06:29:16;14.48;;;7.03;;
30380;SDS011;17169;50.966;11.038;2023-09-08T06:32:20;17.55;;;7.63;;
30380;SDS011;17169;50.966;11.038;2023-09-08T06:35:22;13.80;;;7.55;;
30380;SDS011;17169;50.966;11.038;2023-09-08T06:38:24;9.82;;;6.97;;
30380;SDS011;17169;50.966;11.038;2023-09-08T06:41:27;10.57;;;7.68;;
30380;SDS011;17169;50.966;11.038;2023-09-08T06:44:29;17.38;;;8.02;;
30380;SDS011;17169;50.966;11.038;2023-09-08T06:47:33;12.07;;;7.25;;
30380;SDS011;17169;50.966;11.038;2023-09-08T06:50:35;10.63;;;6.85;;
30380;SDS011;17169;50.966;11.038;2023-09-08T06:53:37;11.75;;;6.93;;
30380;SDS011;17169;50.966;11.038;2023-09-08T06:56:40;9.48;;;6.45;;
30380;SDS011;17169;50.966;11.038;2023-09-08T06:59:42;15.63;;;7.55;;
30380;SDS011;17169;50.966;11.038;2023-09-08T07:02:46;10.18;;;6.53;;
30380;SDS011;17169;50.966;11.038;2023-09-08T07:05:50;12.93;;;7.75;;
30380;SDS011;17169;50.966;11.038;2023-09-08T07:08:52;15.40;;;7.07;;
30380;SDS011;17169;50.966;11.038;2023-09-08T07:11:54;10.88;;;6.43;;
30380;SDS011;17169;50.966;11.038;2023-09-08T07:14:57;13.10;;;5.90;;
30380;SDS011;17169;50.966;11.038;2023-09-08T07:18:01;11.32;;;6.70;;
30380;SDS011;17169;50.966;11.038;2023-09-08T07:21:04;9.93;;;5.80;;
30380;SDS011;17169;50.966;11.038;2023-09-08T07:24:07;10.60;;;6.28;;
30380;SDS011;17169;50.966;11.038;2023-09-08T07:27:10;12.15;;;7.03;;
30380;SDS011;17169;50.966;11.038;2023-09-08T07:30:14;14.43;;;7.32;;
30380;SDS011;17169;50.966;11.038;2023-09-08T07:33:18;11.43;;;7.10;;
30380;SDS011;17169;50.966;11.038;2023-09-08T07:36:20;13.27;;;6.38;;
30380;SDS011;17169;50.966;11.038;2023-09-08T07:39:23;10.57;;;7.03;;
30380;SDS011;17169;50.966;11.038;2023-09-08T07:42:25;13.05;;;7.53;;
30380;SDS011;17169;50.966;11.038;2023-09-08T07:45:28;15.98;;;6.88;;
30380;SDS011;17169;50.966;11.038;2023-09-08T07:48:32;10.30;;;6.97;;
30380;SDS011;17169;50.966;11.038;2023-09-08T07:51:34;11.98;;;7.53;;
30380;SDS011;17169;50.966;11.038;2023-09-08T07:54:37;10.25;;;6.85;;
30380;SDS011;17169;50.966;11.038;2023-09-08T07:57:40;13.30;;;8.05;;
30380;SDS011;17169;50.966;11.038;2023-09-08T08:00:43;10.65;;;6.72;;
30380;SDS011;17169;50.966;11.038;2023-09-08T08:03:47;13.07;;;7.10;;
30380;SDS011;17169;50.966;11.038;2023-09-08T08:06:49;11.15;;;6.45;;
30380;SDS011;17169;50.966;11.038;2023-09-08T08:09:51;11.43;;;6.50;;
30380;SDS011;17169;50.966;11.038;2023-09-08T08:12:54;14.60;;;7.55;;
30380;SDS011;17169;50.966;11.038;2023-09-08T08:15:57;14.90;;;6.60;;
30380;SDS011;17169;50.966;11.038;2023-09-08T08:19:00;11.18;;;6.43;;
30380;SDS011;17169;50.966;11.038;2023-09-08T08:22:03;12.43;;;6.73;;
30380;SDS011;17169;50.966;11.038;2023-09-08T08:25:06;11.90;;;6.93;;
30380;SDS011;17169;50.966;11.038;2023-09-08T08:28:09;13.52;;;6.88;;
30380;SDS011;17169;50.966;11.038;2023-09-08T08:31:12;12.70;;;6.55;;
30380;SDS011;17169;50.966;11.038;2023-09-08T08:34:15;13.13;;;6.50;;
30380;SDS011;17169;50.966;11.038;2023-09-08T08:37:18;11.10;;;6.63;;
30380;SDS011;17169;50.966;11.038;2023-09-08T08:40:20;11.88;;;6.55;;
30380;SDS011;17169;50.966;11.038;2023-09-08T08:43:27;12.00;;;5.75;;
30380;SDS011;17169;50.966;11.038;2023-09-08T08:46:30;11.60;;;6.35;;
30380;SDS011;17169;50.966;11.038;2023-09-08T08:49:35;11.13;;;5.55;;
30380;SDS011;17169;50.966;11.038;2023-09-08T08:52:39;12.85;;;6.18;;
30380;SDS011;17169;50.966;11.038;2023-09-08T08:55:41;12.07;;;6.65;;
30380;SDS011;17169;50.966;11.038;2023-09-08T08:58:44;11.75;;;6.03;;
30380;SDS011;17169;50.966;11.038;2023-09-08T09:01:47;12.68;;;5.78;;
30380;SDS011;17169;50.966;11.038;2023-09-08T09:04:51;10.60;;;6.47;;
30380;SDS011;17169;50.966;11.038;2023-09-08T09:07:54;9.15;;;5.68;;
30380;SDS011;17169;50.966;11.038;2023-09-08T09:11:03;14.95;;;6.45;;
30380;SDS011;17169;50.966;11.038;2023-09-08T09:14:06;12.98;;;6.22;;
30380;SDS011;17169;50.966;11.038;2023-09-08T09:17:10;17.67;;;6.22;;
30380;SDS011;17169;50.966;11.038;2023-09-08T09:20:14;13.10;;;6.45;;
30380;SDS011;17169;50.966;11.038;2023-09-08T09:23:21;16.90;;;6.72;;
30380;SDS011;17169;50.966;11.038;2023-09-08T09:26:28;16.55;;;6.18;;
30380;SDS011;17169;50.966;11.038;2023-09-08T09:29:31;14.52;;;5.30;;
30380;SDS011;17169;50.966;11.038;2023-09-08T09:32:33;13.60;;;5.80;;
30380;SDS011;17169;50.966;11.038;2023-09-08T09:35:40;12.75;;;5.72;;
30380;SDS011;17169;50.966;11.038;2023-09-08T09:38:44;11.05;;;5.78;;
30380;SDS011;17169;50.966;11.038;2023-09-08T09:41:46;14.32;;;5.43;;
30380;SDS011;17169;50.966;11.038;2023-09-08T09:44:49;11.07;;;5.35;;
30380;SDS011;17169;50.966;11.038;2023-09-08T09:47:53;13.80;;;5.63;;
30380;SDS011;17169;50.966;11.038;2023-09-08T09:50:58;13.65;;;5.68;;
30380;SDS011;17169;50.966;11.038;2023-09-08T09:54:16;13.85;;;4.93;;
30380;SDS011;17169;50.966;11.038;2023-09-08T09:57:19;16.88;;;6.70;;
30380;SDS011;17169;50.966;11.038;2023-09-08T10:00:23;14.82;;;6.72;;
30380;SDS011;17169;50.966;11.038;2023-09-08T10:03:26;14.13;;;5.15;;
30380;SDS011;17169;50.966;11.038;2023-09-08T10:06:31;15.43;;;5.53;;
30380;SDS011;17169;50.966;11.038;2023-09-08T10:12:37;13.15;;;5.35;;
30380;SDS011;17169;50.966;11.038;2023-09-08T10:15:40;6.95;;;4.25;;
30380;SDS011;17169;50.966;11.038;2023-09-08T10:18:44;7.38;;;4.38;;
30380;SDS011;17169;50.966;11.038;2023-09-08T10:21:50;8.85;;;4.57;;
30380;SDS011;17169;50.966;11.038;2023-09-08T10:24:56;6.35;;;4.18;;
30380;SDS011;17169;50.966;11.038;2023-09-08T10:28:04;7.38;;;4.05;;
30380;SDS011;17169;50.966;11.038;2023-09-08T10:31:08;6.37;;;4.27;;
30380;SDS011;17169;50.966;11.038;2023-09-08T10:34:11;8.52;;;3.85;;
30380;SDS011;17169;50.966;11.038;2023-09-08T10:37:19;8.90;;;4.28;;
30380;SDS011;17169;50.966;11.038;2023-09-08T10:40:23;7.88;;;4.15;;
30380;SDS011;17169;50.966;11.038;2023-09-08T10:43:27;7.50;;;3.97;;
30380;SDS011;17169;50.966;11.038;2023-09-08T10:46:30;7.50;;;4.40;;
30380;SDS011;17169;50.966;11.038;2023-09-08T10:49:34;9.65;;;4.63;;
30380;SDS011;17169;50.966;11.038;2023-09-08T10:52:38;10.32;;;4.13;;
30380;SDS011;17169;50.966;11.038;2023-09-08T10:55:43;7.05;;;4.18;;
30380;SDS011;17169;50.966;11.038;2023-09-08T10:58:49;8.48;;;4.00;;
30380;SDS011;17169;50.966;11.038;2023-09-08T11:01:53;9.82;;;4.82;;
30380;SDS011;17169;50.966;11.038;2023-09-08T11:04:56;5.60;;;3.78;;
30380;SDS011;17169;50.966;11.038;2023-09-08T11:08:00;6.28;;;3.70;;
30380;SDS011;17169;50.966;11.038;2023-09-08T11:11:04;7.65;;;3.72;;
30380;SDS011;17169;50.966;11.038;2023-09-08T11:14:07;6.38;;;3.92;;
30380;SDS011;17169;50.966;11.038;2023-09-08T11:17:10;8.38;;;3.75;;
30380;SDS011;17169;50.966;11.038;2023-09-08T11:20:12;5.93;;;3.35;;
30380;SDS011;17169;50.966;11.038;2023-09-08T11:23:17;7.13;;;4.68;;
30380;SDS011;17169;50.966;11.038;2023-09-08T11:26:20;5.90;;;3.58;;
30380;SDS011;17169;50.966;11.038;2023-09-08T11:29:23;9.15;;;4.40;;
30380;SDS011;17169;50.966;11.038;2023-09-08T11:32:31;8.50;;;3.28;;
30380;SDS011;17169;50.966;11.038;2023-09-08T11:35:34;7.50;;;3.90;;
30380;SDS011;17169;50.966;11.038;2023-09-08T11:38:38;7.45;;;4.22;;
30380;SDS011;17169;50.966;11.038;2023-09-08T11:41:41;5.38;;;3.15;;
30380;SDS011;17169;50.966;11.038;2023-09-08T11:44:44;6.28;;;4.07;;
30380;SDS011;17169;50.966;11.038;2023-09-08T11:47:46;6.22;;;3.67;;
30380;SDS011;17169;50.966;11.038;2023-09-08T11:50:52;13.80;;;3.47;;
30380;SDS011;17169;50.966;11.038;2023-09-08T11:53:56;8.50;;;4.82;;
30380;SDS011;17169;50.966;11.038;2023-09-08T11:56:59;5.18;;;3.47;;
30380;SDS011;17169;50.966;11.038;2023-09-08T12:00:02;7.15;;;3.53;;
30380;SDS011;17169;50.966;11.038;2023-09-08T12:03:10;5.53;;;3.45;;
30380;SDS011;17169;50.966;11.038;2023-09-08T12:06:13;6.63;;;4.35;;
30380;SDS011;17169;50.966;11.038;2023-09-08T12:09:17;7.22;;;3.47;;
30380;SDS011;17169;50.966;11.038;2023-09-08T12:12:19;8.88;;;3.38;;
30380;SDS011;17169;50.966;11.038;2023-09-08T12:15:32;11.32;;;3.92;;
30380;SDS011;17169;50.966;11.038;2023-09-08T12:18:38;5.32;;;3.08;;
30380;SDS011;17169;50.966;11.038;2023-09-08T12:21:53;5.75;;;3.28;;
30380;SDS011;17169;50.966;11.038;2023-09-08T12:24:58;9.32;;;3.72;;
30380;SDS011;17169;50.966;11.038;2023-09-08T12:28:02;4.47;;;3.08;;
30380;SDS011;17169;50.966;11.038;2023-09-08T12:31:05;6.40;;;2.83;;
30380;SDS011;17169;50.966;11.038;2023-09-08T12:34:08;8.13;;;3.30;;
30380;SDS011;17169;50.966;11.038;2023-09-08T12:37:10;4.78;;;3.22;;
30380;SDS011;17169;50.966;11.038;2023-09-08T12:40:14;4.93;;;3.10;;
30380;SDS011;17169;50.966;11.038;2023-09-08T12:43:18;5.93;;;3.30;;
30380;SDS011;17169;50.966;11.038;2023-09-08T12:46:20;9.75;;;3.40;;
30380;SDS011;17169;50.966;11.038;2023-09-08T12:49:22;5.72;;;3.60;;
30380;SDS011;17169;50.966;11.038;2023-09-08T12:52:25;4.57;;;3.13;;
30380;SDS011;17169;50.966;11.038;2023-09-08T12:55:28;8.50;;;3.30;;
30380;SDS011;17169;50.966;11.038;2023-09-08T12:58:31;10.70;;;3.97;;
30380;SDS011;17169;50.966;11.038;2023-09-08T13:01:34;10.18;;;3.30;;
30380;SDS011;17169;50.966;11.038;2023-09-08T13:04:36;5.07;;;3.38;;
30380;SDS011;17169;50.966;11.038;2023-09-08T13:07:39;6.13;;;3.40;;
30380;SDS011;17169;50.966;11.038;2023-09-08T13:10:42;10.93;;;3.78;;
30380;SDS011;17169;50.966;11.038;2023-09-08T13:13:45;9.07;;;4.00;;
30380;SDS011;17169;50.966;11.038;2023-09-08T13:16:47;6.43;;;3.70;;
30380;SDS011;17169;50.966;11.038;2023-09-08T13:19:49;8.70;;;3.65;;
30380;SDS011;17169;50.966;11.038;2023-09-08T13:22:52;7.13;;;4.45;;
30380;SDS011;17169;50.966;11.038;2023-09-08T13:25:55;5.80;;;3.38;;
30380;SDS011;17169;50.966;11.038;2023-09-08T13:28:58;9.80;;;3.33;;
30380;SDS011;17169;50.966;11.038;2023-09-08T13:32:00;9.02;;;2.72;;
30380;SDS011;17169;50.966;11.038;2023-09-08T13:35:03;5.68;;;3.38;;
30380;SDS011;17169;50.966;11.038;2023-09-08T13:38:05;4.78;;;3.38;;
30380;SDS011;17169;50.966;11.038;2023-09-08T13:41:09;6.28;;;3.50;;
30380;SDS011;17169;50.966;11.038;2023-09-08T13:44:11;10.50;;;3.83;;
30380;SDS011;17169;50.966;11.038;2023-09-08T13:47:15;5.97;;;3.83;;
30380;SDS011;17169;50.966;11.038;2023-09-08T13:50:18;5.00;;;2.97;;
30380;SDS011;17169;50.966;11.038;2023-09-08T13:53:20;4.22;;;3.08;;
30380;SDS011;17169;50.966;11.038;2023-09-08T13:56:24;8.02;;;3.13;;
30380;SDS011;17169;50.966;11.038;2023-09-08T13:59:26;7.80;;;3.35;;
30380;SDS011;17169;50.966;11.038;2023-09-08T14:02:30;6.82;;;3.15;;
30380;SDS011;17169;50.966;11.038;2023-09-08T14:05:32;7.57;;;4.93;;
30380;SDS011;17169;50.966;11.038;2023-09-08T14:08:34;12.07;;;6.50;;
30380;SDS011;17169;50.966;11.038;2023-09-08T14:11:38;3.50;;;2.72;;
30380;SDS011;17169;50.966;11.038;2023-09-08T14:17:43;6.65;;;3.80;;
30380;SDS011;17169;50.966;11.038;2023-09-08T14:20:45;6.30;;;3.42;;
30380;SDS011;17169;50.966;11.038;2023-09-08T14:23:47;4.50;;;3.30;;
30380;SDS011;17169;50.966;11.038;2023-09-08T14:26:51;6.45;;;3.60;;
30380;SDS011;17169;50.966;11.038;2023-09-08T14:29:53;7.65;;;3.47;;
30380;SDS011;17169;50.966;11.038;2023-09-08T14:32:56;7.30;;;3.00;;
30380;SDS011;17169;50.966;11.038;2023-09-08T14:35:58;8.40;;;3.72;;
30380;SDS011;17169;50.966;11.038;2023-09-08T14:39:00;4.80;;;3.40;;
30380;SDS011;17169;50.966;11.038;2023-09-08T14:42:05;10.43;;;5.25;;
30380;SDS011;17169;50.966;11.038;2023-09-08T14:45:09;5.47;;;3.30;;
30380;SDS011;17169;50.966;11.038;2023-09-08T14:48:12;4.90;;;3.40;;
30380;SDS011;17169;50.966;11.038;2023-09-08T14:51:15;7.85;;;4.53;;
30380;SDS011;17169;50.966;11.038;2023-09-08T14:54:17;9.75;;;3.50;;
30380;SDS011;17169;50.966;11.038;2023-09-08T14:57:21;7.28;;;4.28;;
30380;SDS011;17169;50.966;11.038;2023-09-08T15:00:23;7.03;;;3.75;;
30380;SDS011;17169;50.966;11.038;2023-09-08T15:03:26;4.53;;;3.80;;
30380;SDS011;17169;50.966;11.038;2023-09-08T15:06:28;6.55;;;3.75;;
30380;SDS011;17169;50.966;11.038;2023-09-08T15:09:30;5.07;;;3.75;;
30380;SDS011;17169;50.966;11.038;2023-09-08T15:12:35;5.15;;;4.15;;
30380;SDS011;17169;50.966;11.038;2023-09-08T15:15:37;7.15;;;3.63;;
30380;SDS011;17169;50.966;11.038;2023-09-08T15:18:40;8.30;;;3.97;;
30380;SDS011;17169;50.966;11.038;2023-09-08T15:21:43;4.78;;;3.40;;
30380;SDS011;17169;50.966;11.038;2023-09-08T15:27:48;5.13;;;3.60;;
30380;SDS011;17169;50.966;11.038;2023-09-08T15:30:51;4.85;;;3.40;;
30380;SDS011;17169;50.966;11.038;2023-09-08T15:33:55;3.78;;;3.15;;
30380;SDS011;17169;50.966;11.038;2023-09-08T15:36:58;3.97;;;3.25;;
30380;SDS011;17169;50.966;11.038;2023-09-08T15:40:00;5.72;;;3.60;;
30380;SDS011;17169;50.966;11.038;2023-09-08T15:43:04;5.45;;;3.33;;
30380;SDS011;17169;50.966;11.038;2023-09-08T15:46:06;7.07;;;3.15;;
30380;SDS011;17169;50.966;11.038;2023-09-08T15:49:09;5.72;;;3.00;;
30380;SDS011;17169;50.966;11.038;2023-09-08T15:52:11;3.75;;;2.60;;
30380;SDS011;17169;50.966;11.038;2023-09-08T15:55:15;5.07;;;3.30;;
30380;SDS011;17169;50.966;11.038;2023-09-08T15:58:19;6.70;;;3.20;;
30380;SDS011;17169;50.966;11.038;2023-09-08T16:01:21;6.70;;;3.00;;
30380;SDS011;17169;50.966;11.038;2023-09-08T16:04:23;7.30;;;2.75;;
30380;SDS011;17169;50.966;11.038;2023-09-08T16:07:27;7.95;;;3.63;;
30380;SDS011;17169;50.966;11.038;2023-09-08T16:10:29;4.80;;;3.10;;
30380;SDS011;17169;50.966;11.038;2023-09-08T16:13:33;4.78;;;3.42;;
30380;SDS011;17169;50.966;11.038;2023-09-08T16:16:35;6.30;;;3.07;;
30380;SDS011;17169;50.966;11.038;2023-09-08T16:19:37;11.25;;;3.30;;
30380;SDS011;17169;50.966;11.038;2023-09-08T16:22:40;6.18;;;3.40;;
30380;SDS011;17169;50.966;11.038;2023-09-08T16:25:42;4.82;;;3.33;;
30380;SDS011;17169;50.966;11.038;2023-09-08T16:28:46;5.82;;;3.30;;
30380;SDS011;17169;50.966;11.038;2023-09-08T16:31:48;5.38;;;3.20;;
30380;SDS011;17169;50.966;11.038;2023-09-08T16:34:50;8.18;;;3.28;;
30380;SDS011;17169;50.966;11.038;2023-09-08T16:37:53;7.15;;;3.30;;
30380;SDS011;17169;50.966;11.038;2023-09-08T16:40:55;7.97;;;3.85;;
30380;SDS011;17169;50.966;11.038;2023-09-08T16:44:00;9.93;;;3.65;;
30380;SDS011;17169;50.966;11.038;2023-09-08T16:47:02;7.18;;;4.05;;
30380;SDS011;17169;50.966;11.038;2023-09-08T16:50:05;9.68;;;3.95;;
30380;SDS011;17169;50.966;11.038;2023-09-08T16:53:08;7.10;;;3.35;;
30380;SDS011;17169;50.966;11.038;2023-09-08T16:56:10;6.68;;;3.63;;
30380;SDS011;17169;50.966;11.038;2023-09-08T16:59:14;7.45;;;3.15;;
30380;SDS011;17169;50.966;11.038;2023-09-08T17:02:17;7.68;;;4.20;;
30380;SDS011;17169;50.966;11.038;2023-09-08T17:05:19;7.13;;;3.55;;
30380;SDS011;17169;50.966;11.038;2023-09-08T17:08:21;8.90;;;3.97;;
30380;SDS011;17169;50.966;11.038;2023-09-08T17:11:25;5.00;;;3.50;;
30380;SDS011;17169;50.966;11.038;2023-09-08T17:14:28;6.57;;;3.50;;
30380;SDS011;17169;50.966;11.038;2023-09-08T17:17:31;7.82;;;4.20;;
30380;SDS011;17169;50.966;11.038;2023-09-08T17:20:33;6.70;;;4.20;;
30380;SDS011;17169;50.966;11.038;2023-09-08T17:23:35;7.45;;;4.10;;
30380;SDS011;17169;50.966;11.038;2023-09-08T17:26:38;6.82;;;3.50;;
30380;SDS011;17169;50.966;11.038;2023-09-08T17:29:41;9.15;;;4.00;;
30380;SDS011;17169;50.966;11.038;2023-09-08T17:32:44;7.82;;;3.75;;
30380;SDS011;17169;50.966;11.038;2023-09-08T17:35:46;7.25;;;3.75;;
30380;SDS011;17169;50.966;11.038;2023-09-08T17:38:49;10.23;;;4.25;;
30380;SDS011;17169;50.966;11.038;2023-09-08T17:41:52;7.07;;;3.85;;
30380;SDS011;17169;50.966;11.038;2023-09-08T17:44:56;9.27;;;4.70;;
30380;SDS011;17169;50.966;11.038;2023-09-08T17:47:58;9.52;;;5.30;;
30380;SDS011;17169;50.966;11.038;2023-09-08T17:51:00;13.57;;;9.55;;
30380;SDS011;17169;50.966;11.038;2023-09-08T17:54:04;26.10;;;14.25;;
30380;SDS011;17169;50.966;11.038;2023-09-08T17:57:06;21.20;;;12.38;;
30380;SDS011;17169;50.966;11.038;2023-09-08T18:00:10;21.50;;;12.73;;
30380;SDS011;17169;50.966;11.038;2023-09-08T18:03:13;17.65;;;11.25;;
30380;SDS011;17169;50.966;11.038;2023-09-08T18:06:15;14.75;;;9.52;;
30380;SDS011;17169;50.966;11.038;2023-09-08T18:09:18;19.23;;;9.13;;